UUOO/VOZ METAR and TAF weather

Enter ICAO airport designator
Station Type Date Time Source
UUOO METAR 2022/09/28 19:00 UTC NOAA

UUOO 281900Z 31002MPS 5000 BR NSC 13/12 Q1003 R12/190060 NOSIG RMK QFE738


Station Type Date Time Source
UUOO Decoded METAR 2022/09/28 19:00 UTC NOAA

Voronez, Russia (UUOO) 51-39N 039-15E 104M
Sep 28, 2022 - 03:00 PM EDT / 2022.09.28 1900 UTC
Wind: from the NW (310 degrees) at 4 MPH (4 KT):0
Visibility: 3 mile(s):0
Weather: mist
Temperature: 55 F (13 C)
Dew Point: 53 F (12 C)
Relative Humidity: 93%
Pressure (altimeter): 29.62 in. Hg (1003 hPa)
ob: UUOO 281900Z 31002MPS 5000 BR NSC 13/12 Q1003 R12/190060 NOSIG RMK QFE738
cycle: 19

Station Type Date Time Source
UUOO TAF 2019/08/12 03:33 UTC NOAA

TAF COR TAF COR UUOO 120159 1203/1212 31003MPS CAVOK

Example: see airport list